sensor_id;sensor_type;location;lat;lon;timestamp;P1;durP1;ratioP1;P2;durP2;ratioP2
67597;SDS011;62026;39.230;9.122;2023-01-10T00:00:39;9.32;;;1.42;;
67597;SDS011;62026;39.230;9.122;2023-01-10T00:03:07;14.30;;;2.00;;
67597;SDS011;62026;39.230;9.122;2023-01-10T00:05:36;14.98;;;1.88;;
67597;SDS011;62026;39.230;9.122;2023-01-10T00:08:04;17.75;;;2.08;;
67597;SDS011;62026;39.230;9.122;2023-01-10T00:10:32;9.80;;;1.52;;
67597;SDS011;62026;39.230;9.122;2023-01-10T00:12:59;16.45;;;1.88;;
67597;SDS011;62026;39.230;9.122;2023-01-10T00:15:44;17.17;;;2.08;;
67597;SDS011;62026;39.230;9.122;2023-01-10T00:18:10;13.93;;;1.80;;
67597;SDS011;62026;39.230;9.122;2023-01-10T00:20:36;16.42;;;2.38;;
67597;SDS011;62026;39.230;9.122;2023-01-10T00:23:02;11.20;;;1.75;;
67597;SDS011;62026;39.230;9.122;2023-01-10T00:25:29;14.88;;;1.95;;
67597;SDS011;62026;39.230;9.122;2023-01-10T00:27:57;10.50;;;2.15;;
67597;SDS011;62026;39.230;9.122;2023-01-10T00:30:38;11.80;;;2.03;;
67597;SDS011;62026;39.230;9.122;2023-01-10T00:33:04;9.48;;;2.00;;
67597;SDS011;62026;39.230;9.122;2023-01-10T00:35:33;14.75;;;2.22;;
67597;SDS011;62026;39.230;9.122;2023-01-10T00:37:59;17.50;;;2.15;;
67597;SDS011;62026;39.230;9.122;2023-01-10T00:40:32;11.48;;;2.10;;
67597;SDS011;62026;39.230;9.122;2023-01-10T00:42:58;9.60;;;1.60;;
67597;SDS011;62026;39.230;9.122;2023-01-10T00:45:44;14.88;;;1.83;;
67597;SDS011;62026;39.230;9.122;2023-01-10T00:48:12;9.60;;;1.65;;
67597;SDS011;62026;39.230;9.122;2023-01-10T00:50:39;9.15;;;1.98;;
67597;SDS011;62026;39.230;9.122;2023-01-10T00:53:05;9.27;;;1.58;;
67597;SDS011;62026;39.230;9.122;2023-01-10T00:55:31;12.75;;;1.73;;
67597;SDS011;62026;39.230;9.122;2023-01-10T00:57:59;8.93;;;1.80;;
67597;SDS011;62026;39.230;9.122;2023-01-10T01:00:25;13.30;;;2.10;;
67597;SDS011;62026;39.230;9.122;2023-01-10T01:02:52;9.95;;;1.63;;
67597;SDS011;62026;39.230;9.122;2023-01-10T01:05:19;12.05;;;1.80;;
67597;SDS011;62026;39.230;9.122;2023-01-10T01:07:49;16.33;;;1.80;;
67597;SDS011;62026;39.230;9.122;2023-01-10T01:10:16;13.70;;;1.88;;
67597;SDS011;62026;39.230;9.122;2023-01-10T01:12:57;9.48;;;1.77;;
67597;SDS011;62026;39.230;9.122;2023-01-10T01:15:31;16.25;;;1.77;;
67597;SDS011;62026;39.230;9.122;2023-01-10T01:17:59;12.32;;;2.05;;
67597;SDS011;62026;39.230;9.122;2023-01-10T01:20:25;12.15;;;1.75;;
67597;SDS011;62026;39.230;9.122;2023-01-10T01:22:52;11.00;;;1.90;;
67597;SDS011;62026;39.230;9.122;2023-01-10T01:25:18;11.20;;;1.67;;
67597;SDS011;62026;39.230;9.122;2023-01-10T01:27:44;13.15;;;1.83;;
67597;SDS011;62026;39.230;9.122;2023-01-10T01:30:10;18.02;;;2.15;;
67597;SDS011;62026;39.230;9.122;2023-01-10T01:32:37;11.80;;;1.80;;
67597;SDS011;62026;39.230;9.122;2023-01-10T01:35:03;16.42;;;1.85;;
67597;SDS011;62026;39.230;9.122;2023-01-10T01:37:31;11.10;;;1.67;;
67597;SDS011;62026;39.230;9.122;2023-01-10T01:39:57;15.13;;;1.90;;
67597;SDS011;62026;39.230;9.122;2023-01-10T01:42:25;12.63;;;1.85;;
67597;SDS011;62026;39.230;9.122;2023-01-10T01:47:57;12.40;;;1.70;;
67597;SDS011;62026;39.230;9.122;2023-01-10T01:56:06;18.40;;;1.80;;
67597;SDS011;62026;39.230;9.122;2023-01-10T02:01:24;14.77;;;1.92;;
67597;SDS011;62026;39.230;9.122;2023-01-10T02:03:54;14.98;;;2.15;;
67597;SDS011;62026;39.230;9.122;2023-01-10T02:06:34;11.90;;;1.87;;
67597;SDS011;62026;39.230;9.122;2023-01-10T02:11:54;11.43;;;1.77;;
67597;SDS011;62026;39.230;9.122;2023-01-10T02:14:22;20.60;;;2.05;;
67597;SDS011;62026;39.230;9.122;2023-01-10T02:16:50;17.35;;;2.08;;
67597;SDS011;62026;39.230;9.122;2023-01-10T02:19:20;10.02;;;1.30;;
67597;SDS011;62026;39.230;9.122;2023-01-10T02:30:53;17.45;;;1.92;;
67597;SDS011;62026;39.230;9.122;2023-01-10T02:34:34;13.70;;;1.48;;
67597;SDS011;62026;39.230;9.122;2023-01-10T02:42:10;11.35;;;1.30;;
67597;SDS011;62026;39.230;9.122;2023-01-10T02:47:40;12.40;;;1.63;;
67597;SDS011;62026;39.230;9.122;2023-01-10T02:51:08;10.90;;;1.77;;
67597;SDS011;62026;39.230;9.122;2023-01-10T02:53:16;9.70;;;1.70;;
67597;SDS011;62026;39.230;9.122;2023-01-10T03:04:51;14.65;;;1.58;;
67597;SDS011;62026;39.230;9.122;2023-01-10T03:11:08;11.95;;;1.85;;
67597;SDS011;62026;39.230;9.122;2023-01-10T03:13:42;13.07;;;1.88;;
67597;SDS011;62026;39.230;9.122;2023-01-10T03:16:19;14.73;;;2.40;;
67597;SDS011;62026;39.230;9.122;2023-01-10T03:18:53;14.27;;;1.95;;
67597;SDS011;62026;39.230;9.122;2023-01-10T03:21:48;15.38;;;2.38;;
67597;SDS011;62026;39.230;9.122;2023-01-10T03:24:23;14.55;;;2.10;;
67597;SDS011;62026;39.230;9.122;2023-01-10T03:27:02;16.10;;;2.85;;
67597;SDS011;62026;39.230;9.122;2023-01-10T03:32:56;11.88;;;1.98;;
67597;SDS011;62026;39.230;9.122;2023-01-10T03:35:30;18.88;;;2.30;;
67597;SDS011;62026;39.230;9.122;2023-01-10T03:38:23;13.13;;;1.63;;
67597;SDS011;62026;39.230;9.122;2023-01-10T03:41:47;15.25;;;2.08;;
67597;SDS011;62026;39.230;9.122;2023-01-10T03:44:14;14.43;;;1.90;;
67597;SDS011;62026;39.230;9.122;2023-01-10T03:50:22;13.07;;;1.75;;
67597;SDS011;62026;39.230;9.122;2023-01-10T03:52:51;10.90;;;1.63;;
67597;SDS011;62026;39.230;9.122;2023-01-10T03:55:18;13.07;;;2.20;;
67597;SDS011;62026;39.230;9.122;2023-01-10T03:57:50;10.88;;;1.50;;
67597;SDS011;62026;39.230;9.122;2023-01-10T04:00:16;18.33;;;1.92;;
67597;SDS011;62026;39.230;9.122;2023-01-10T04:02:43;12.80;;;1.98;;
67597;SDS011;62026;39.230;9.122;2023-01-10T04:05:09;15.38;;;2.00;;
67597;SDS011;62026;39.230;9.122;2023-01-10T04:07:36;14.52;;;2.10;;
67597;SDS011;62026;39.230;9.122;2023-01-10T04:10:03;10.55;;;2.00;;
67597;SDS011;62026;39.230;9.122;2023-01-10T04:12:30;16.42;;;2.00;;
67597;SDS011;62026;39.230;9.122;2023-01-10T04:14:56;16.48;;;1.63;;
67597;SDS011;62026;39.230;9.122;2023-01-10T04:17:22;10.48;;;1.60;;
67597;SDS011;62026;39.230;9.122;2023-01-10T04:19:48;17.25;;;2.88;;
67597;SDS011;62026;39.230;9.122;2023-01-10T04:22:14;15.55;;;2.15;;
67597;SDS011;62026;39.230;9.122;2023-01-10T04:24:40;12.80;;;2.38;;
67597;SDS011;62026;39.230;9.122;2023-01-10T04:27:08;13.48;;;2.38;;
67597;SDS011;62026;39.230;9.122;2023-01-10T04:29:34;15.10;;;1.75;;
67597;SDS011;62026;39.230;9.122;2023-01-10T04:32:00;12.18;;;1.95;;
67597;SDS011;62026;39.230;9.122;2023-01-10T04:34:26;16.92;;;2.03;;
67597;SDS011;62026;39.230;9.122;2023-01-10T04:36:52;15.00;;;1.98;;
67597;SDS011;62026;39.230;9.122;2023-01-10T04:39:18;10.77;;;1.70;;
67597;SDS011;62026;39.230;9.122;2023-01-10T04:41:44;12.57;;;1.77;;
67597;SDS011;62026;39.230;9.122;2023-01-10T04:44:10;13.30;;;1.70;;
67597;SDS011;62026;39.230;9.122;2023-01-10T04:46:37;13.77;;;1.48;;
67597;SDS011;62026;39.230;9.122;2023-01-10T04:49:03;11.43;;;1.73;;
67597;SDS011;62026;39.230;9.122;2023-01-10T04:51:29;11.25;;;2.20;;
67597;SDS011;62026;39.230;9.122;2023-01-10T04:53:55;13.27;;;2.92;;
67597;SDS011;62026;39.230;9.122;2023-01-10T04:56:21;11.30;;;1.80;;
67597;SDS011;62026;39.230;9.122;2023-01-10T04:58:48;15.48;;;1.88;;
67597;SDS011;62026;39.230;9.122;2023-01-10T05:01:24;12.73;;;1.85;;
67597;SDS011;62026;39.230;9.122;2023-01-10T05:03:51;17.85;;;2.22;;
67597;SDS011;62026;39.230;9.122;2023-01-10T05:06:20;15.50;;;1.55;;
67597;SDS011;62026;39.230;9.122;2023-01-10T05:08:47;11.18;;;1.70;;
67597;SDS011;62026;39.230;9.122;2023-01-10T05:11:14;10.98;;;1.65;;
67597;SDS011;62026;39.230;9.122;2023-01-10T05:13:40;17.67;;;2.92;;
67597;SDS011;62026;39.230;9.122;2023-01-10T05:16:06;20.00;;;2.13;;
67597;SDS011;62026;39.230;9.122;2023-01-10T05:18:32;14.77;;;2.10;;
67597;SDS011;62026;39.230;9.122;2023-01-10T05:21:02;12.43;;;2.13;;
67597;SDS011;62026;39.230;9.122;2023-01-10T05:23:32;15.02;;;1.63;;
67597;SDS011;62026;39.230;9.122;2023-01-10T05:26:05;12.48;;;1.98;;
67597;SDS011;62026;39.230;9.122;2023-01-10T05:28:37;9.50;;;1.42;;
67597;SDS011;62026;39.230;9.122;2023-01-10T05:31:05;15.55;;;2.10;;
67597;SDS011;62026;39.230;9.122;2023-01-10T05:33:36;16.92;;;2.35;;
67597;SDS011;62026;39.230;9.122;2023-01-10T05:36:03;13.90;;;2.38;;
67597;SDS011;62026;39.230;9.122;2023-01-10T05:38:31;11.20;;;1.77;;
67597;SDS011;62026;39.230;9.122;2023-01-10T05:40:58;16.52;;;2.15;;
67597;SDS011;62026;39.230;9.122;2023-01-10T05:43:25;22.30;;;2.20;;
67597;SDS011;62026;39.230;9.122;2023-01-10T05:45:52;13.85;;;1.95;;
67597;SDS011;62026;39.230;9.122;2023-01-10T05:48:18;13.95;;;1.85;;
67597;SDS011;62026;39.230;9.122;2023-01-10T05:50:44;12.95;;;1.60;;
67597;SDS011;62026;39.230;9.122;2023-01-10T05:53:11;13.05;;;1.75;;
67597;SDS011;62026;39.230;9.122;2023-01-10T05:55:37;12.88;;;1.58;;
67597;SDS011;62026;39.230;9.122;2023-01-10T05:58:03;17.42;;;2.00;;
67597;SDS011;62026;39.230;9.122;2023-01-10T06:00:28;10.75;;;1.75;;
67597;SDS011;62026;39.230;9.122;2023-01-10T06:02:55;11.25;;;2.42;;
67597;SDS011;62026;39.230;9.122;2023-01-10T06:05:22;10.07;;;2.00;;
67597;SDS011;62026;39.230;9.122;2023-01-10T06:07:48;12.50;;;1.60;;
67597;SDS011;62026;39.230;9.122;2023-01-10T06:10:15;11.27;;;1.70;;
67597;SDS011;62026;39.230;9.122;2023-01-10T06:12:42;13.90;;;1.77;;
67597;SDS011;62026;39.230;9.122;2023-01-10T06:15:08;11.85;;;1.63;;
67597;SDS011;62026;39.230;9.122;2023-01-10T06:17:35;16.33;;;2.30;;
67597;SDS011;62026;39.230;9.122;2023-01-10T06:20:01;17.52;;;2.20;;
67597;SDS011;62026;39.230;9.122;2023-01-10T06:22:27;20.52;;;2.13;;
67597;SDS011;62026;39.230;9.122;2023-01-10T06:24:53;10.45;;;1.98;;
67597;SDS011;62026;39.230;9.122;2023-01-10T06:27:19;13.77;;;1.88;;
67597;SDS011;62026;39.230;9.122;2023-01-10T06:29:46;12.95;;;2.17;;
67597;SDS011;62026;39.230;9.122;2023-01-10T06:32:12;10.70;;;1.75;;
67597;SDS011;62026;39.230;9.122;2023-01-10T06:34:38;11.60;;;2.10;;
67597;SDS011;62026;39.230;9.122;2023-01-10T06:37:03;12.93;;;2.22;;
67597;SDS011;62026;39.230;9.122;2023-01-10T06:39:29;13.77;;;1.98;;
67597;SDS011;62026;39.230;9.122;2023-01-10T06:41:55;18.95;;;2.40;;
67597;SDS011;62026;39.230;9.122;2023-01-10T06:44:21;18.75;;;2.50;;
67597;SDS011;62026;39.230;9.122;2023-01-10T06:46:47;14.13;;;1.92;;
67597;SDS011;62026;39.230;9.122;2023-01-10T06:49:13;15.35;;;1.58;;
67597;SDS011;62026;39.230;9.122;2023-01-10T06:51:39;13.35;;;2.05;;
67597;SDS011;62026;39.230;9.122;2023-01-10T06:54:05;12.48;;;1.90;;
67597;SDS011;62026;39.230;9.122;2023-01-10T06:56:31;18.65;;;3.20;;
67597;SDS011;62026;39.230;9.122;2023-01-10T06:58:57;13.57;;;1.95;;
67597;SDS011;62026;39.230;9.122;2023-01-10T07:01:23;10.95;;;1.98;;
67597;SDS011;62026;39.230;9.122;2023-01-10T07:03:49;10.07;;;1.65;;
67597;SDS011;62026;39.230;9.122;2023-01-10T07:06:14;11.70;;;2.08;;
67597;SDS011;62026;39.230;9.122;2023-01-10T07:08:41;15.85;;;2.42;;
67597;SDS011;62026;39.230;9.122;2023-01-10T07:11:11;15.65;;;2.47;;
67597;SDS011;62026;39.230;9.122;2023-01-10T07:13:39;14.07;;;2.53;;
67597;SDS011;62026;39.230;9.122;2023-01-10T07:16:06;13.60;;;2.08;;
67597;SDS011;62026;39.230;9.122;2023-01-10T07:18:36;15.70;;;2.38;;
67597;SDS011;62026;39.230;9.122;2023-01-10T07:21:04;16.25;;;2.75;;
67597;SDS011;62026;39.230;9.122;2023-01-10T07:23:31;13.05;;;1.92;;
67597;SDS011;62026;39.230;9.122;2023-01-10T07:25:57;10.45;;;2.08;;
67597;SDS011;62026;39.230;9.122;2023-01-10T07:28:28;15.70;;;2.40;;
67597;SDS011;62026;39.230;9.122;2023-01-10T07:30:56;12.23;;;2.00;;
67597;SDS011;62026;39.230;9.122;2023-01-10T07:33:24;14.05;;;2.58;;
67597;SDS011;62026;39.230;9.122;2023-01-10T07:35:50;19.35;;;2.17;;
67597;SDS011;62026;39.230;9.122;2023-01-10T07:38:16;12.02;;;2.72;;
67597;SDS011;62026;39.230;9.122;2023-01-10T07:40:42;14.70;;;2.10;;
67597;SDS011;62026;39.230;9.122;2023-01-10T07:43:08;17.38;;;1.90;;
67597;SDS011;62026;39.230;9.122;2023-01-10T07:45:34;17.00;;;2.45;;
67597;SDS011;62026;39.230;9.122;2023-01-10T07:48:01;19.23;;;2.80;;
67597;SDS011;62026;39.230;9.122;2023-01-10T07:50:30;25.35;;;2.45;;
67597;SDS011;62026;39.230;9.122;2023-01-10T07:52:59;14.65;;;2.05;;
67597;SDS011;62026;39.230;9.122;2023-01-10T07:55:27;16.48;;;2.35;;
67597;SDS011;62026;39.230;9.122;2023-01-10T07:57:54;8.25;;;1.58;;
67597;SDS011;62026;39.230;9.122;2023-01-10T08:00:21;13.75;;;1.85;;
67597;SDS011;62026;39.230;9.122;2023-01-10T08:02:47;15.65;;;2.33;;
67597;SDS011;62026;39.230;9.122;2023-01-10T08:05:19;18.53;;;2.67;;
67597;SDS011;62026;39.230;9.122;2023-01-10T08:07:45;18.70;;;1.85;;
67597;SDS011;62026;39.230;9.122;2023-01-10T08:10:11;10.15;;;1.55;;
67597;SDS011;62026;39.230;9.122;2023-01-10T08:12:37;12.82;;;2.55;;
67597;SDS011;62026;39.230;9.122;2023-01-10T08:15:03;11.55;;;2.15;;
67597;SDS011;62026;39.230;9.122;2023-01-10T08:17:33;13.68;;;2.35;;
67597;SDS011;62026;39.230;9.122;2023-01-10T08:20:00;11.55;;;2.15;;
67597;SDS011;62026;39.230;9.122;2023-01-10T08:22:26;16.67;;;2.33;;
67597;SDS011;62026;39.230;9.122;2023-01-10T08:24:52;9.98;;;2.20;;
67597;SDS011;62026;39.230;9.122;2023-01-10T08:27:18;16.38;;;2.00;;
67597;SDS011;62026;39.230;9.122;2023-01-10T08:29:44;12.05;;;1.67;;
67597;SDS011;62026;39.230;9.122;2023-01-10T08:32:11;11.98;;;2.13;;
67597;SDS011;62026;39.230;9.122;2023-01-10T08:34:37;14.75;;;2.45;;
67597;SDS011;62026;39.230;9.122;2023-01-10T08:37:03;14.63;;;1.98;;
67597;SDS011;62026;39.230;9.122;2023-01-10T08:39:29;13.60;;;2.42;;
67597;SDS011;62026;39.230;9.122;2023-01-10T08:41:55;14.68;;;1.92;;
67597;SDS011;62026;39.230;9.122;2023-01-10T08:44:21;18.58;;;2.60;;
67597;SDS011;62026;39.230;9.122;2023-01-10T08:46:47;13.45;;;2.13;;
67597;SDS011;62026;39.230;9.122;2023-01-10T08:49:14;14.57;;;2.47;;
67597;SDS011;62026;39.230;9.122;2023-01-10T08:51:40;9.95;;;2.47;;
67597;SDS011;62026;39.230;9.122;2023-01-10T08:54:06;15.52;;;2.50;;
67597;SDS011;62026;39.230;9.122;2023-01-10T08:56:32;17.90;;;2.60;;
67597;SDS011;62026;39.230;9.122;2023-01-10T08:59:00;18.45;;;2.75;;
67597;SDS011;62026;39.230;9.122;2023-01-10T09:01:26;20.67;;;2.67;;
67597;SDS011;62026;39.230;9.122;2023-01-10T09:03:51;19.02;;;2.47;;
67597;SDS011;62026;39.230;9.122;2023-01-10T09:06:17;18.48;;;3.05;;
67597;SDS011;62026;39.230;9.122;2023-01-10T09:08:43;23.42;;;3.00;;
67597;SDS011;62026;39.230;9.122;2023-01-10T09:11:09;17.13;;;2.60;;
67597;SDS011;62026;39.230;9.122;2023-01-10T09:13:35;19.67;;;2.70;;
67597;SDS011;62026;39.230;9.122;2023-01-10T09:16:01;14.63;;;2.75;;
67597;SDS011;62026;39.230;9.122;2023-01-10T09:18:28;14.02;;;2.30;;
67597;SDS011;62026;39.230;9.122;2023-01-10T09:20:54;16.98;;;2.72;;
67597;SDS011;62026;39.230;9.122;2023-01-10T09:23:20;15.50;;;2.10;;
67597;SDS011;62026;39.230;9.122;2023-01-10T09:25:51;17.10;;;2.78;;
67597;SDS011;62026;39.230;9.122;2023-01-10T09:28:20;20.50;;;2.30;;
67597;SDS011;62026;39.230;9.122;2023-01-10T09:30:48;17.33;;;2.63;;
67597;SDS011;62026;39.230;9.122;2023-01-10T09:33:14;21.60;;;2.90;;
67597;SDS011;62026;39.230;9.122;2023-01-10T09:35:41;13.38;;;2.35;;
67597;SDS011;62026;39.230;9.122;2023-01-10T09:38:11;17.80;;;2.60;;
67597;SDS011;62026;39.230;9.122;2023-01-10T09:43:50;15.68;;;2.08;;
67597;SDS011;62026;39.230;9.122;2023-01-10T09:52:29;20.10;;;2.45;;
67597;SDS011;62026;39.230;9.122;2023-01-10T09:55:01;21.77;;;1.80;;
67597;SDS011;62026;39.230;9.122;2023-01-10T09:57:50;10.55;;;2.15;;
67597;SDS011;62026;39.230;9.122;2023-01-10T10:00:21;13.23;;;2.10;;
67597;SDS011;62026;39.230;9.122;2023-01-10T10:02:58;14.88;;;2.22;;
67597;SDS011;62026;39.230;9.122;2023-01-10T10:05:24;9.75;;;1.70;;
67597;SDS011;62026;39.230;9.122;2023-01-10T10:07:59;13.32;;;2.20;;
67597;SDS011;62026;39.230;9.122;2023-01-10T10:10:40;13.45;;;2.00;;
67597;SDS011;62026;39.230;9.122;2023-01-10T10:13:31;11.45;;;2.00;;
67597;SDS011;62026;39.230;9.122;2023-01-10T10:28:26;23.98;;;2.67;;
67597;SDS011;62026;39.230;9.122;2023-01-10T10:31:56;18.13;;;2.00;;
67597;SDS011;62026;39.230;9.122;2023-01-10T10:34:49;15.73;;;2.70;;
67597;SDS011;62026;39.230;9.122;2023-01-10T10:38:00;15.52;;;2.00;;
67597;SDS011;62026;39.230;9.122;2023-01-10T10:40:22;9.48;;;1.75;;
67597;SDS011;62026;39.230;9.122;2023-01-10T10:43:05;14.82;;;1.85;;
67597;SDS011;62026;39.230;9.122;2023-01-10T10:48:42;14.95;;;2.40;;
67597;SDS011;62026;39.230;9.122;2023-01-10T10:51:28;18.15;;;2.42;;
67597;SDS011;62026;39.230;9.122;2023-01-10T10:54:01;19.98;;;2.50;;
67597;SDS011;62026;39.230;9.122;2023-01-10T10:56:27;8.07;;;2.05;;
67597;SDS011;62026;39.230;9.122;2023-01-10T10:58:55;10.93;;;1.85;;
67597;SDS011;62026;39.230;9.122;2023-01-10T11:01:24;9.18;;;2.00;;
67597;SDS011;62026;39.230;9.122;2023-01-10T11:03:52;15.85;;;2.72;;
67597;SDS011;62026;39.230;9.122;2023-01-10T11:06:33;13.77;;;1.97;;
67597;SDS011;62026;39.230;9.122;2023-01-10T11:09:03;17.45;;;1.90;;
67597;SDS011;62026;39.230;9.122;2023-01-10T11:11:37;9.38;;;2.00;;
67597;SDS011;62026;39.230;9.122;2023-01-10T11:14:09;13.27;;;2.40;;
67597;SDS011;62026;39.230;9.122;2023-01-10T11:16:38;19.45;;;2.53;;
67597;SDS011;62026;39.230;9.122;2023-01-10T11:21:39;14.10;;;2.03;;
67597;SDS011;62026;39.230;9.122;2023-01-10T11:27:17;11.65;;;1.58;;
67597;SDS011;62026;39.230;9.122;2023-01-10T11:29:50;10.67;;;2.03;;
67597;SDS011;62026;39.230;9.122;2023-01-10T11:32:29;12.13;;;1.83;;
67597;SDS011;62026;39.230;9.122;2023-01-10T11:35:20;12.13;;;2.55;;
67597;SDS011;62026;39.230;9.122;2023-01-10T11:43:27;15.55;;;1.77;;
67597;SDS011;62026;39.230;9.122;2023-01-10T11:46:00;11.30;;;2.00;;
67597;SDS011;62026;39.230;9.122;2023-01-10T11:51:23;14.68;;;2.15;;
67597;SDS011;62026;39.230;9.122;2023-01-10T11:54:24;15.88;;;2.40;;
67597;SDS011;62026;39.230;9.122;2023-01-10T11:56:54;17.25;;;2.17;;
67597;SDS011;62026;39.230;9.122;2023-01-10T11:59:24;12.03;;;1.77;;
67597;SDS011;62026;39.230;9.122;2023-01-10T12:04:23;14.93;;;2.28;;
67597;SDS011;62026;39.230;9.122;2023-01-10T12:06:56;14.70;;;2.00;;
67597;SDS011;62026;39.230;9.122;2023-01-10T12:09:41;12.55;;;1.85;;
67597;SDS011;62026;39.230;9.122;2023-01-10T12:12:19;8.40;;;1.77;;
67597;SDS011;62026;39.230;9.122;2023-01-10T12:14:49;13.53;;;2.00;;
67597;SDS011;62026;39.230;9.122;2023-01-10T12:17:24;13.95;;;1.83;;
67597;SDS011;62026;39.230;9.122;2023-01-10T12:19:57;15.05;;;1.80;;
67597;SDS011;62026;39.230;9.122;2023-01-10T12:22:30;11.65;;;2.53;;
67597;SDS011;62026;39.230;9.122;2023-01-10T12:25:19;16.08;;;2.05;;
67597;SDS011;62026;39.230;9.122;2023-01-10T12:27:55;10.45;;;2.00;;
67597;SDS011;62026;39.230;9.122;2023-01-10T12:33:01;9.32;;;1.90;;
67597;SDS011;62026;39.230;9.122;2023-01-10T12:41:07;12.63;;;2.03;;
67597;SDS011;62026;39.230;9.122;2023-01-10T12:43:56;9.35;;;1.60;;
67597;SDS011;62026;39.230;9.122;2023-01-10T12:46:41;14.75;;;1.83;;
67597;SDS011;62026;39.230;9.122;2023-01-10T12:51:50;15.50;;;2.83;;
67597;SDS011;62026;39.230;9.122;2023-01-10T12:54:22;16.08;;;2.13;;
67597;SDS011;62026;39.230;9.122;2023-01-10T12:56:52;7.78;;;1.67;;
67597;SDS011;62026;39.230;9.122;2023-01-10T12:59:21;9.25;;;1.95;;
67597;SDS011;62026;39.230;9.122;2023-01-10T13:02:01;9.32;;;1.60;;
67597;SDS011;62026;39.230;9.122;2023-01-10T13:04:30;12.32;;;2.00;;
67597;SDS011;62026;39.230;9.122;2023-01-10T13:07:02;13.57;;;2.00;;
67597;SDS011;62026;39.230;9.122;2023-01-10T13:09:29;15.70;;;1.80;;
67597;SDS011;62026;39.230;9.122;2023-01-10T13:17:57;12.15;;;2.05;;
67597;SDS011;62026;39.230;9.122;2023-01-10T13:20:43;13.45;;;2.17;;
67597;SDS011;62026;39.230;9.122;2023-01-10T13:26:02;12.00;;;1.83;;
67597;SDS011;62026;39.230;9.122;2023-01-10T13:28:34;11.55;;;2.10;;
67597;SDS011;62026;39.230;9.122;2023-01-10T13:31:06;10.27;;;1.88;;
67597;SDS011;62026;39.230;9.122;2023-01-10T13:33:54;11.10;;;1.83;;
67597;SDS011;62026;39.230;9.122;2023-01-10T13:36:36;10.52;;;1.83;;
67597;SDS011;62026;39.230;9.122;2023-01-10T13:48:22;11.68;;;2.67;;
67597;SDS011;62026;39.230;9.122;2023-01-10T13:52:48;14.38;;;2.17;;
67597;SDS011;62026;39.230;9.122;2023-01-10T14:00:41;13.52;;;2.08;;
67597;SDS011;62026;39.230;9.122;2023-01-10T14:09:00;15.38;;;2.30;;
67597;SDS011;62026;39.230;9.122;2023-01-10T14:11:50;10.10;;;1.70;;
67597;SDS011;62026;39.230;9.122;2023-01-10T14:20:05;14.95;;;2.47;;
67597;SDS011;62026;39.230;9.122;2023-01-10T14:25:44;15.43;;;1.93;;
67597;SDS011;62026;39.230;9.122;2023-01-10T14:28:21;9.77;;;1.92;;
67597;SDS011;62026;39.230;9.122;2023-01-10T14:33:30;14.38;;;2.40;;
67597;SDS011;62026;39.230;9.122;2023-01-10T14:36:13;14.32;;;1.98;;
67597;SDS011;62026;39.230;9.122;2023-01-10T14:38:50;10.55;;;2.00;;
67597;SDS011;62026;39.230;9.122;2023-01-10T14:41:36;11.63;;;1.95;;
67597;SDS011;62026;39.230;9.122;2023-01-10T14:44:07;9.52;;;1.60;;
67597;SDS011;62026;39.230;9.122;2023-01-10T14:46:44;11.15;;;2.00;;
67597;SDS011;62026;39.230;9.122;2023-01-10T14:49:24;11.68;;;1.80;;
67597;SDS011;62026;39.230;9.122;2023-01-10T14:51:53;10.45;;;1.80;;
67597;SDS011;62026;39.230;9.122;2023-01-10T14:54:37;14.02;;;2.45;;
67597;SDS011;62026;39.230;9.122;2023-01-10T14:57:03;20.38;;;2.22;;
67597;SDS011;62026;39.230;9.122;2023-01-10T14:59:45;17.03;;;2.57;;
67597;SDS011;62026;39.230;9.122;2023-01-10T15:02:21;16.73;;;2.00;;
67597;SDS011;62026;39.230;9.122;2023-01-10T15:05:01;19.58;;;2.85;;
67597;SDS011;62026;39.230;9.122;2023-01-10T15:07:42;15.18;;;2.55;;
67597;SDS011;62026;39.230;9.122;2023-01-10T15:12:59;16.80;;;1.95;;
67597;SDS011;62026;39.230;9.122;2023-01-10T15:15:35;14.95;;;3.03;;
67597;SDS011;62026;39.230;9.122;2023-01-10T15:18:11;9.68;;;2.10;;
67597;SDS011;62026;39.230;9.122;2023-01-10T15:20:58;11.98;;;2.35;;
67597;SDS011;62026;39.230;9.122;2023-01-10T15:23:32;11.20;;;2.30;;
67597;SDS011;62026;39.230;9.122;2023-01-10T15:26:04;11.70;;;1.95;;
67597;SDS011;62026;39.230;9.122;2023-01-10T15:28:41;16.10;;;2.00;;
67597;SDS011;62026;39.230;9.122;2023-01-10T15:31:13;15.43;;;2.60;;
67597;SDS011;62026;39.230;9.122;2023-01-10T15:33:46;13.32;;;2.47;;
67597;SDS011;62026;39.230;9.122;2023-01-10T15:36:20;10.90;;;2.35;;
67597;SDS011;62026;39.230;9.122;2023-01-10T15:38:51;14.02;;;2.38;;
67597;SDS011;62026;39.230;9.122;2023-01-10T15:41:19;14.77;;;2.05;;
67597;SDS011;62026;39.230;9.122;2023-01-10T15:43:48;12.07;;;2.28;;
67597;SDS011;62026;39.230;9.122;2023-01-10T15:46:22;15.05;;;2.80;;
67597;SDS011;62026;39.230;9.122;2023-01-10T15:48:55;14.48;;;2.42;;
67597;SDS011;62026;39.230;9.122;2023-01-10T15:51:29;14.48;;;1.73;;
67597;SDS011;62026;39.230;9.122;2023-01-10T15:56:52;11.57;;;1.83;;
67597;SDS011;62026;39.230;9.122;2023-01-10T16:04:36;14.15;;;2.20;;
67597;SDS011;62026;39.230;9.122;2023-01-10T16:07:25;13.25;;;2.25;;
67597;SDS011;62026;39.230;9.122;2023-01-10T16:09:52;11.77;;;1.98;;
67597;SDS011;62026;39.230;9.122;2023-01-10T16:12:26;11.82;;;2.67;;
67597;SDS011;62026;39.230;9.122;2023-01-10T16:15:24;10.25;;;1.95;;
67597;SDS011;62026;39.230;9.122;2023-01-10T16:17:53;20.60;;;2.50;;
67597;SDS011;62026;39.230;9.122;2023-01-10T16:20:21;15.80;;;2.53;;
67597;SDS011;62026;39.230;9.122;2023-01-10T16:23:12;18.55;;;3.35;;
67597;SDS011;62026;39.230;9.122;2023-01-10T16:25:50;22.15;;;2.85;;
67597;SDS011;62026;39.230;9.122;2023-01-10T16:28:20;18.88;;;3.10;;
67597;SDS011;62026;39.230;9.122;2023-01-10T16:30:48;21.67;;;3.65;;
67597;SDS011;62026;39.230;9.122;2023-01-10T16:33:21;16.17;;;4.10;;
67597;SDS011;62026;39.230;9.122;2023-01-10T16:35:55;16.95;;;3.35;;
67597;SDS011;62026;39.230;9.122;2023-01-10T16:38:24;21.60;;;3.78;;
67597;SDS011;62026;39.230;9.122;2023-01-10T16:41:01;15.48;;;3.13;;
67597;SDS011;62026;39.230;9.122;2023-01-10T16:43:49;17.33;;;3.15;;
67597;SDS011;62026;39.230;9.122;2023-01-10T16:46:18;12.13;;;2.58;;
67597;SDS011;62026;39.230;9.122;2023-01-10T16:48:44;15.82;;;2.88;;
67597;SDS011;62026;39.230;9.122;2023-01-10T16:53:42;14.90;;;2.70;;
67597;SDS011;62026;39.230;9.122;2023-01-10T16:56:10;16.05;;;2.97;;
67597;SDS011;62026;39.230;9.122;2023-01-10T16:58:52;18.48;;;4.22;;
67597;SDS011;62026;39.230;9.122;2023-01-10T17:01:22;13.90;;;3.28;;
67597;SDS011;62026;39.230;9.122;2023-01-10T17:03:54;17.08;;;3.55;;
67597;SDS011;62026;39.230;9.122;2023-01-10T17:06:23;12.88;;;2.78;;
67597;SDS011;62026;39.230;9.122;2023-01-10T17:08:49;13.95;;;3.50;;
67597;SDS011;62026;39.230;9.122;2023-01-10T17:11:16;20.65;;;2.85;;
67597;SDS011;62026;39.230;9.122;2023-01-10T17:13:49;18.85;;;2.97;;
67597;SDS011;62026;39.230;9.122;2023-01-10T17:16:15;16.50;;;3.00;;
67597;SDS011;62026;39.230;9.122;2023-01-10T17:18:41;12.60;;;2.83;;
67597;SDS011;62026;39.230;9.122;2023-01-10T17:21:10;16.90;;;3.50;;
67597;SDS011;62026;39.230;9.122;2023-01-10T17:23:46;21.30;;;3.65;;
67597;SDS011;62026;39.230;9.122;2023-01-10T17:26:15;23.85;;;3.85;;
67597;SDS011;62026;39.230;9.122;2023-01-10T17:28:43;21.90;;;4.18;;
67597;SDS011;62026;39.230;9.122;2023-01-10T17:31:10;9.90;;;2.92;;
67597;SDS011;62026;39.230;9.122;2023-01-10T17:33:36;19.30;;;3.80;;
67597;SDS011;62026;39.230;9.122;2023-01-10T17:36:03;16.67;;;3.42;;
67597;SDS011;62026;39.230;9.122;2023-01-10T17:38:30;17.42;;;3.35;;